Latest Weather Observations for Esperance Harbour

IDW60801

Issued at 8:04 am WST Sunday 25 June 2017 (issued every 30 minutes, with the page automatically refreshed every 10 minutes)

About weather observations | Map of weather stations | Latest weather observations for WA | Other Formats
Station Details ID: 109504 Name: ESPERANCE NTC AWS Lat: -33.87 Lon: 121.90 Height: 0.0 m
Data from the previous 72 hours. | See also: Recent months for locations in Western Australia
Date/Time
WST
Temp
°C
App
Temp
°C
Dew
Point
°C
Rel
Hum
%
Delta-T
°C
Wind Press
QNH
hPa
Press
MSL
hPa
Rain since
9am
mm
Dir  Spd
km/h
Gust
km/h
Spd
kts
Gust
kts
25/08:00am 14.1 - - - - - - - - - 1026.6 1026.5 -
25/07:30am 13.9 - - - - - - - - - 1026.3 1026.2 -
25/07:00am 12.9 - - - - - - - - - 1026.1 1026.0 -
25/06:30am 13.1 - - - - - - - - - 1026.0 1025.9 -
25/06:00am 12.6 - - - - - - - - - 1025.8 1025.7 -
25/05:30am 11.9 - - - - - - - - - 1025.7 1025.6 -
25/05:00am 11.2 - - - - - - - - - 1025.8 1025.7 -
25/04:30am 12.3 - - - - - - - - - 1025.6 1025.5 -
25/04:00am 13.7 - - - - - - - - - 1025.5 1025.4 -
25/03:30am 13.7 - - - - - - - - - 1025.7 1025.6 -
25/03:00am 13.6 - - - - - - - - - 1025.7 1025.6 -
25/02:30am 13.4 - - - - - - - - - 1025.6 1025.5 -
25/02:00am 13.3 - - - - - - - - - 1025.7 1025.6 -
25/01:30am 13.0 - - - - - - - - - 1025.7 1025.6 -
25/01:00am 13.4 - - - - - - - - - 1025.7 1025.6 -
25/12:30am 13.6 - - - - - - - - - 1025.6 1025.5 -
25/12:00am 13.9 - - - - - - - - - 1025.8 1025.7 -
 
Date/Time
WST
Temp
°C
App
Temp
°C
Dew
Point
°C
Rel
Hum
%
Delta-T
°C
Wind Press
QNH
hPa
Press
MSL
hPa
Rain since
9am
mm
Dir  Spd
km/h
Gust
km/h
Spd
kts
Gust
kts
24/11:30pm 13.7 - - - - - - - - - 1025.8 1025.7 -
24/11:00pm 13.8 - - - - - - - - - 1025.9 1025.8 -
24/10:30pm 14.4 - - - - - - - - - 1025.8 1025.7 -
24/10:00pm 14.5 - - - - - - - - - 1025.8 1025.7 -
24/09:30pm 14.9 - - - - - - - - - 1025.6 1025.5 -
24/09:00pm 14.7 - - - - - - - - - 1025.6 1025.5 -
24/08:30pm 14.7 - - - - - - - - - 1025.5 1025.4 -
24/08:00pm 14.5 - - - - - - - - - 1025.3 1025.2 -
24/07:30pm 14.5 - - - - - - - - - 1025.1 1025.0 -
24/07:00pm 14.5 - - - - - - - - - 1025.0 1024.9 -
24/06:30pm 14.4 - - - - - - - - - 1025.0 1024.9 -
24/06:00pm 14.4 - - - - - - - - - 1024.7 1024.6 -
24/05:30pm 14.4 - - - - - - - - - 1024.4 1024.3 -
24/05:00pm 14.4 - - - - - - - - - 1024.3 1024.2 -
24/04:30pm 14.3 - - - - - - - - - 1024.1 1024.0 -
24/04:00pm 14.4 - - - - - - - - - 1024.1 1024.0 -
24/03:30pm 14.4 - - - - - - - - - 1024.1 1024.0 -
24/03:00pm 14.3 - - - - - - - - - 1024.1 1024.0 -
24/02:30pm 14.2 - - - - - - - - - 1023.9 1023.8 -
24/02:00pm 14.8 - - - - - - - - - 1023.9 1023.8 -
24/01:30pm 14.2 - - - - - - - - - 1024.0 1023.9 -
24/01:00pm 13.6 - - - - - - - - - 1024.4 1024.3 -
24/12:30pm 13.8 - - - - - - - - - 1024.8 1024.7 -
24/12:00pm 14.2 - - - - - - - - - 1025.0 1024.9 -
24/11:30am 14.6 - - - - - - - - - 1025.3 1025.2 -
24/11:00am 15.1 - - - - - - - - - 1025.7 1025.6 -
24/10:30am 14.5 - - - - - - - - - 1026.0 1025.9 -
24/10:00am 14.6 - - - - - - - - - 1026.2 1026.1 -
24/09:30am 14.1 - - - - - - - - - 1026.2 1026.1 -
24/09:00am 15.0 - - - - - - - - - 1026.0 1025.9 -
24/08:30am 15.8 - - - - - - - - - 1025.7 1025.6 -
24/08:00am 15.0 - - - - - - - - - 1025.5 1025.4 -
24/07:30am 14.4 - - - - - - - - - 1025.3 1025.2 -
24/07:00am 14.3 - - - - - - - - - 1025.0 1024.9 -
24/06:30am 14.7 - - - - - - - - - 1024.7 1024.6 -
24/06:00am 14.8 - - - - - - - - - 1024.5 1024.4 -
24/05:30am 14.9 - - - - - - - - - 1024.3 1024.2 -
24/05:00am 14.9 - - - - - - - - - 1024.2 1024.1 -
24/04:30am 15.0 - - - - - - - - - 1024.3 1024.2 -
24/04:00am 15.1 - - - - - - - - - 1024.3 1024.2 -
24/03:30am 15.1 - - - - - - - - - 1024.2 1024.1 -
24/03:00am 14.8 - - - - - - - - - 1024.3 1024.2 -
24/02:30am 14.3 - - - - - - - - - 1024.4 1024.3 -
24/02:00am 14.5 - - - - - - - - - 1024.5 1024.4 -
24/01:30am 14.6 - - - - - - - - - 1024.4 1024.3 -
24/01:00am 14.7 - - - - - - - - - 1024.5 1024.4 -
24/12:30am 14.7 - - - - - - - - - 1024.6 1024.5 -
24/12:00am 14.9 - - - - - - - - - 1024.6 1024.5 -
 
Date/Time
WST
Temp
°C
App
Temp
°C
Dew
Point
°C
Rel
Hum
%
Delta-T
°C
Wind Press
QNH
hPa
Press
MSL
hPa
Rain since
9am
mm
Dir  Spd
km/h
Gust
km/h
Spd
kts
Gust
kts
23/11:30pm 15.0 - - - - - - - - - 1024.6 1024.5 -
23/11:00pm 14.9 - - - - - - - - - 1024.6 1024.5 -
23/10:30pm 14.9 - - - - - - - - - 1024.7 1024.6 -
23/10:00pm 14.8 - - - - - - - - - 1024.6 1024.5 -
23/09:30pm 14.8 - - - - - - - - - 1024.7 1024.6 -
23/09:00pm 14.8 - - - - - - - - - 1024.7 1024.6 -
23/08:30pm 14.8 - - - - - - - - - 1024.8 1024.7 -
23/08:00pm 14.8 - - - - - - - - - 1024.6 1024.5 -
23/07:30pm 14.8 - - - - - - - - - 1024.5 1024.4 -
23/07:00pm 15.0 - - - - - - - - - 1024.2 1024.1 -
23/06:30pm 14.7 - - - - - - - - - 1024.0 1023.9 -
23/06:00pm 14.8 - - - - - - - - - 1023.5 1023.4 -
23/05:30pm 14.7 - - - - - - - - - 1023.0 1022.9 -
23/05:00pm 14.9 - - - - - - - - - 1022.7 1022.6 -
23/04:30pm 15.0 - - - - - - - - - 1022.5 1022.4 -
23/04:00pm 15.0 - - - - - - - - - 1022.4 1022.3 -
23/03:30pm 15.4 - - - - - - - - - 1022.3 1022.2 -
23/03:00pm 15.7 - - - - - - - - - 1022.1 1022.0 -
23/02:30pm 15.6 - - - - - - - - - 1021.9 1021.8 -
23/02:00pm 15.7 - - - - - - - - - 1021.7 1021.6 -
23/01:30pm 15.5 - - - - - - - - - 1021.6 1021.5 -
23/01:00pm 15.3 - - - - - - - - - 1021.6 1021.5 -
23/12:30pm 15.1 - - - - - - - - - 1021.8 1021.7 -
23/12:00pm 15.2 - - - - - - - - - 1022.0 1021.9 -
23/11:30am 15.1 - - - - - - - - - 1022.2 1022.1 -
23/11:00am 15.2 - - - - - - - - - 1022.2 1022.1 -
23/10:30am 15.0 - - - - - - - - - 1022.2 1022.1 -
23/10:00am 14.8 - - - - - - - - - 1022.1 1022.0 -
23/09:30am 14.7 - - - - - - - - - 1022.0 1021.9 -
23/09:00am 12.6 - - - - - - - - - 1021.8 1021.7 -
23/08:30am 11.9 - - - - - - - - - 1021.5 1021.4 -
23/08:00am 12.5 - - - - - - - - - 1021.1 1021.0 -
23/07:30am 12.1 - - - - - - - - - 1021.1 1021.0 -
23/07:00am 11.6 - - - - - - - - - 1020.5 1020.5 -
23/06:30am 11.7 - - - - - - - - - 1020.0 1020.0 -
23/06:00am 11.5 - - - - - - - - - 1019.8 1019.8 -
23/05:30am 10.9 - - - - - - - - - 1019.3 1019.3 -
23/05:00am 10.3 - - - - - - - - - 1019.1 1019.1 -
23/04:30am 11.3 - - - - - - - - - 1018.9 1018.9 -
23/04:00am 11.3 - - - - - - - - - 1018.7 1018.7 -
23/03:30am 12.1 - - - - - - - - - 1018.6 1018.6 -
23/03:00am 12.3 - - - - - - - - - 1018.6 1018.6 -
23/02:30am 12.6 - - - - - - - - - 1018.3 1018.3 -
23/02:00am 11.3 - - - - - - - - - 1018.2 1018.2 -
23/01:30am 12.1 - - - - - - - - - 1018.3 1018.3 -
23/01:00am 12.0 - - - - - - - - - 1018.1 1018.1 -
23/12:30am 12.8 - - - - - - - - - 1018.0 1018.0 -
23/12:00am 13.0 - - - - - - - - - 1018.0 1018.0 -
 
Date/Time
WST
Temp
°C
App
Temp
°C
Dew
Point
°C
Rel
Hum
%
Delta-T
°C
Wind Press
QNH
hPa
Press
MSL
hPa
Rain since
9am
mm
Dir  Spd
km/h
Gust
km/h
Spd
kts
Gust
kts
22/11:30pm 13.5 - - - - - - - - - 1017.8 1017.8 -
22/11:00pm 13.7 - - - - - - - - - 1017.9 1017.9 -
22/10:30pm 14.8 - - - - - - - - - 1017.8 1017.8 -
22/10:00pm 15.3 - - - - - - - - - 1017.7 1017.7 -
22/09:30pm 15.7 - - - - - - - - - 1017.7 1017.7 -
22/09:00pm 15.6 - - - - - - - - - 1017.6 1017.6 -
22/08:30pm 15.8 - - - - - - - - - 1017.4 1017.4 -
22/08:00pm 16.1 - - - - - - - - - 1017.3 1017.3 -
22/07:30pm 16.1 - - - - - - - - - 1017.0 1017.0 -
22/07:00pm 16.2 - - - - - - - - - 1016.5 1016.5 -
22/06:30pm 16.6 - - - - - - - - - 1016.1 1016.1 -
22/06:00pm 16.8 - - - - - - - - - 1015.7 1015.7 -
22/05:30pm 17.3 - - - - - - - - - 1015.5 1015.5 -
22/05:00pm 17.5 - - - - - - - - - 1015.1 1015.1 -
22/04:30pm 17.6 - - - - - - - - - 1014.9 1014.9 -
22/04:00pm 18.2 - - - - - - - - - 1014.6 1014.6 -
22/03:30pm 17.8 - - - - - - - - - 1014.3 1014.3 -
22/03:00pm 17.8 - - - - - - - - - 1014.0 1014.0 -
22/02:30pm 17.6 - - - - - - - - - 1013.8 1013.8 -
22/02:00pm 17.3 - - - - - - - - - 1014.0 1014.0 -
22/01:30pm 16.9 - - - - - - - - - 1014.0 1014.0 -
22/01:00pm 16.5 - - - - - - - - - 1014.0 1014.0 -
22/12:30pm 16.0 - - - - - - - - - 1014.4 1014.4 -
22/12:00pm 16.2 - - - - - - - - - 1014.5 1014.5 -
22/11:30am 15.9 - - - - - - - - - 1014.9 1014.9 -
22/11:00am 15.4 - - - - - - - - - 1015.1 1015.1 -
22/10:30am 14.3 - - - - - - - - - 1015.6 1015.6 -
22/10:00am 13.6 - - - - - - - - - 1016.1 1016.1 -
22/09:30am 12.3 - - - - - - - - - 1017.3 1017.3 -
22/09:00am 11.8 - - - - - - - - - 1017.7 1017.7 -
22/08:30am 11.4 - - - - - - - - - 1017.6 1017.6 -

Other Formats:

Comma delimited format used in spreadsheet applications
http://www.bom.gov.au/fwo/IDW60801/IDW60801.95648.axf

JavaScript Object Notation format (JSON) in row-major order
http://www.bom.gov.au/fwo/IDW60801/IDW60801.95648.json